Date,TemperatureHighF,TemperatureAvgF,TemperatureLowF,DewpointHighF,DewpointAvgF,DewpointLowF,HumidityHigh,HumidityAvg,HumidityLow,PressureMaxIn,PressureMinIn,WindSpeedMaxMPH,WindSpeedAvgMPH,GustSpeedMaxMPH,PrecipitationSumIn
2013-1-1,10.8,3.4,-0.2,3.8,-2.9,-6.8,77,74,72,30.72,30.64,1,0,0,0.00
2013-1-2,15.7,3.8,-3.7,2.4,-4.4,-10.4,77,69,53,30.85,30.68,2,1,0,0.00
2013-1-3,19.4,4.4,-4.2,4.0,-4.8,-11.5,75,66,49,30.82,30.65,5,1,0,0.00
2013-1-4,19.4,6.4,-1.2,3.8,-2.9,-8.6,76,66,50,30.76,30.57,4,2,6,0.00
2013-1-5,25.4,8.4,-2.4,7.6,-2.1,-11.0,74,63,44,30.83,30.51,6,2,9,0.00
2013-1-6,29.5,17.1,7.9,18.3,8.6,0.2,76,69,58,30.51,30.16,5,1,10,0.00
2013-1-7,18.9,12.3,3.4,15.2,6.6,-2.7,87,78,65,30.42,30.22,3,0,6,0.05
2013-1-8,24.7,22.1,18.6,21.9,19.1,15.1,89,88,86,30.37,30.22,3,0,5,0.00
2013-1-10,35.5,24.8,17.2,32.3,21.3,13.0,92,87,80,29.64,29.49,17,6,24,0.12
2013-1-11,17.0,9.9,3.9,13.0,3.6,-6.0,84,75,62,30.24,29.65,11,4,20,0.06
2013-1-12,4.1,-2.9,-13.3,-5.8,-10.9,-21.4,74,68,60,30.55,30.23,7,1,10,0.00
2013-1-13,1.7,-6.8,-17.2,-7.1,-15.1,-26.4,72,66,57,30.74,30.48,3,1,7,0.00
2013-1-14,2.4,-2.4,-13.0,-6.8,-10.4,-21.7,73,68,59,30.80,30.64,2,0,5,0.00
2013-1-15,11.6,5.9,-0.2,3.2,-1.1,-6.9,78,72,66,30.90,30.72,2,0,7,0.03
2013-1-16,20.8,12.2,6.0,10.6,5.3,-1.1,80,74,61,30.92,30.79,5,1,7,0.00
2013-1-17,22.9,6.9,-2.6,8.0,-1.6,-10.0,80,68,51,30.97,30.73,5,2,10,0.00
2013-1-18,23.2,8.6,0.7,9.5,0.9,-6.0,80,71,54,30.83,30.61,4,1,8,0.00
2013-1-19,27.6,9.6,-1.0,12.3,1.1,-7.3,80,69,50,30.85,30.64,7,1,8,0.00
2013-1-20,26.3,11.6,4.7,10.6,3.0,-2.1,80,69,51,30.78,30.59,4,1,9,0.00
2013-1-21,25.7,10.9,3.2,10.4,1.7,-3.8,77,67,49,30.76,30.55,6,1,10,0.00
2013-1-22,29.0,13.1,1.5,11.9,3.5,-5.7,77,66,48,30.70,30.46,4,1,8,0.00
2013-1-23,34.4,22.4,13.1,17.1,11.6,4.5,75,63,44,30.48,30.22,7,1,9,0.00
2013-1-24,32.8,28.7,21.8,30.0,24.1,14.2,92,83,72,30.30,30.17,3,0,6,0.25
2013-1-25,40.2,34.0,31.9,33.2,30.9,29.8,92,88,73,30.30,30.05,2,0,6,0.07
2013-1-26,39.1,34.5,32.2,34.1,31.8,30.1,93,90,80,30.05,29.75,1,0,6,0.13
2013-1-27,33.7,28.6,22.9,31.6,26.1,19.9,92,90,87,29.87,29.70,11,6,17,0.30
2013-1-28,23.5,19.5,11.4,19.9,15.4,6.6,89,84,76,30.07,29.87,13,6,17,0.11
2013-1-29,23.5,18.4,15.4,16.4,13.8,10.8,87,82,72,30.26,29.88,4,0,6,0.04
2013-1-30,29.1,23.3,17.7,26.4,19.9,13.4,90,87,83,30.23,30.10,12,2,15,0.00
2013-1-31,31.9,28.4,23.2,27.3,25.1,20.4,91,87,82,30.31,30.20,12,3,16,0.01
2013-2-1,31.9,29.0,26.1,27.5,25.8,23.8,91,88,80,30.44,30.17,6,1,8,0.03
2013-2-2,32.4,26.9,18.9,26.3,23.3,15.7,91,86,74,30.55,30.43,5,1,8,0.00
2013-2-3,33.4,20.0,11.6,21.8,13.9,6.4,87,77,60,30.47,30.28,5,1,7,0.00
2013-2-4,28.2,25.6,22.2,25.1,22.8,18.9,91,89,87,30.29,30.17,3,0,6,0.00
2013-2-5,40.1,30.4,21.9,28.9,24.5,17.5,89,79,56,30.18,29.89,2,0,5,0.00
2013-2-6,28.5,24.2,18.6,24.0,20.2,13.9,90,84,78,30.26,29.92,5,1,10,0.00
2013-2-7,36.8,25.2,17.8,21.6,15.0,9.8,82,66,39,30.27,29.99,6,2,10,0.00
2013-2-8,38.5,30.2,21.6,22.4,17.8,13.7,75,60,49,29.99,29.65,17,7,26,0.00
2013-2-9,37.2,29.4,22.5,18.8,15.1,13.0,80,56,41,29.85,29.62,19,10,28,0.00
2013-2-10,28.7,22.4,10.4,17.3,7.0,-3.4,83,54,30,30.24,29.84,14,5,22,0.00
2013-2-11,21.3,9.4,-2.0,3.8,-3.2,-10.6,70,57,39,30.52,30.26,5,2,10,0.00
2013-2-12,23.9,20.0,14.9,17.3,11.5,3.5,80,69,60,30.49,30.36,5,1,7,0.00
2013-2-13,23.2,23.1,22.7,18.3,18.0,17.2,82,80,79,30.36,30.33,1,0,3,0.00
2013-2-15,35.3,28.8,20.2,23.2,20.0,13.8,86,70,58,30.61,30.48,4,1,7,0.00
2013-2-16,38.9,29.2,20.8,24.4,20.7,15.2,81,71,54,30.48,29.98,4,0,6,0.00
2013-2-17,34.6,25.1,17.0,22.7,16.1,6.5,88,69,46,30.13,29.77,10,2,15,0.03
2013-2-18,32.5,20.7,11.4,17.5,12.0,3.2,84,69,51,30.26,30.09,6,1,9,0.00
2013-2-19,34.4,23.3,11.7,24.2,13.2,3.1,86,66,44,30.08,29.69,7,2,16,0.00
2013-2-20,33.4,26.8,22.5,26.0,19.6,12.5,89,75,54,29.81,29.66,10,4,18,0.02
2013-2-21,27.0,22.3,17.8,21.7,17.2,13.0,89,81,65,30.10,29.80,8,2,11,0.00
2013-2-22,27.5,23.0,18.8,22.0,17.9,13.7,87,81,70,30.19,29.98,16,3,20,0.04
2013-2-23,28.4,23.8,12.9,24.7,19.9,7.6,89,85,72,30.10,29.71,20,3,24,0.51
2013-2-24,28.7,11.7,-1.6,16.9,4.3,-8.2,81,72,51,30.58,30.12,5,1,10,0.00
2013-2-25,28.7,20.8,12.4,18.3,13.9,6.3,85,75,58,30.40,30.07,4,1,8,0.05
2013-2-26,26.0,19.2,10.7,17.4,13.4,4.6,86,78,65,30.50,30.06,6,1,8,0.00
2013-2-27,28.2,20.3,13.5,16.9,12.7,7.1,80,72,58,30.58,30.45,5,1,8,0.00
2013-2-28,30.6,23.1,17.8,21.7,16.5,10.6,88,76,59,30.58,30.47,4,0,6,0.01
2013-3-1,32.9,29.0,24.1,29.2,25.8,20.8,91,87,81,30.60,30.50,5,0,7,0.00
2013-3-2,43.5,34.9,30.1,33.2,30.0,28.0,93,83,59,30.52,30.00,1,0,4,0.00
2013-3-3,36.5,32.5,26.1,32.1,27.0,5.6,92,81,41,29.99,29.70,16,5,22,0.06
2013-3-4,29.0,20.2,10.5,11.5,6.0,-1.1,67,55,36,30.47,29.95,8,2,12,0.00
2013-3-5,39.1,21.6,4.3,18.4,6.1,-4.6,69,53,27,30.53,30.01,7,2,13,0.00
2013-3-6,42.3,31.1,22.9,32.8,22.4,11.5,90,71,54,30.01,29.71,20,5,28,0.19
2013-3-7,38.9,30.2,20.8,23.1,18.9,13.5,78,64,38,30.08,29.89,10,1,14,0.00
2013-3-8,40.5,32.3,22.7,31.7,26.5,18.3,90,79,65,29.94,29.77,6,1,8,0.01
2013-3-9,41.6,31.6,20.2,23.3,16.1,10.4,86,54,31,30.31,29.83,12,4,15,0.00
2013-3-10,37.8,26.8,13.8,24.2,16.3,5.4,74,64,51,30.48,30.19,5,1,8,0.00
2013-3-11,41.8,33.4,26.0,29.2,22.1,15.8,73,63,51,30.21,30.07,13,2,19,0.00
2013-3-12,40.8,30.9,19.4,28.1,18.2,7.9,72,59,43,30.36,30.21,5,1,11,0.00
2013-3-13,44.3,38.1,30.4,30.6,29.1,25.6,85,70,57,30.29,30.19,4,0,8,0.00
2013-3-14,51.9,40.2,31.5,31.5,28.7,25.4,80,65,44,30.29,30.01,6,1,11,0.00
2013-3-15,50.4,41.3,35.0,31.0,29.2,27.7,77,63,44,30.05,29.88,4,0,8,0.00
2013-3-16,47.6,38.5,31.2,30.0,26.9,24.3,76,63,48,29.96,29.65,19,2,28,0.00
2013-3-17,38.6,30.5,18.0,30.9,15.9,1.9,89,58,27,30.02,29.48,26,10,38,0.05
2013-3-18,36.2,23.2,12.6,19.5,11.1,3.2,71,60,36,30.15,29.97,9,1,14,0.00
2013-3-19,41.1,25.3,11.4,15.6,7.5,-1.2,69,49,29,30.39,30.11,5,2,12,0.00
2013-3-20,38.8,33.1,24.1,33.9,22.7,-1.0,89,69,30,30.20,29.61,13,2,28,0.24
2013-3-21,37.9,30.6,23.8,32.0,23.6,12.2,91,77,40,29.96,29.56,20,6,30,0.09
2013-3-22,23.9,22.5,20.2,18.6,16.9,15.0,80,79,77,29.96,29.93,4,1,11,0.00
2013-3-23,29.0,19.9,4.1,14.6,7.8,-4.6,82,60,40,30.39,30.22,9,4,18,0.00
2013-3-24,30.6,19.3,9.9,11.0,6.5,0.5,79,59,38,30.42,30.28,11,3,16,0.00
2013-3-25,36.5,20.6,5.6,12.2,3.9,-4.9,64,50,27,30.45,30.18,9,3,16,0.00
2013-3-26,44.8,31.6,18.6,29.1,18.7,5.8,82,59,47,30.18,29.92,6,2,11,0.00
2013-3-27,50.4,38.3,31.3,34.1,28.8,26.4,85,69,42,30.01,29.92,5,1,10,0.00
2013-3-28,54.8,40.0,29.0,30.6,26.1,22.7,79,60,34,30.08,29.94,6,2,11,0.00
2013-3-29,55.1,40.9,32.2,35.6,28.8,21.0,77,62,44,30.13,29.97,6,1,13,0.00
2013-3-30,54.4,41.2,31.3,34.4,29.0,21.4,86,64,33,30.19,30.02,5,1,11,0.00
2013-3-31,57.2,41.0,26.6,32.9,23.7,18.1,71,52,31,30.13,29.88,6,2,11,0.00
2013-4-1,60.7,43.2,29.7,29.2,22.2,-99.9,68,47,22,29.94,29.62,10,-6,14,0.00
2013-4-2,64.0,44.4,30.7,35.6,28.7,24.6,86,58,24,30.03,29.82,5,1,10,0.00
2013-4-3,37.9,36.7,35.6,26.3,25.2,24.2,65,63,62,29.94,29.87,6,2,8,0.00
2013-4-4,62.3,50.9,35.2,38.3,33.9,27.3,74,54,33,30.01,29.69,9,2,14,0.00
2013-4-5,52.5,44.5,37.5,39.0,35.5,28.6,87,71,54,29.83,29.65,22,6,35,0.22
2013-4-6,49.4,40.4,33.8,37.7,32.1,27.4,86,73,54,29.90,29.76,15,4,21,0.11
2013-4-7,47.7,39.3,32.9,37.9,32.3,25.9,92,77,44,29.81,29.51,24,8,35,0.17
2013-4-8,36.9,32.9,27.0,30.9,22.3,9.4,88,66,47,29.81,29.49,27,13,39,0.00
2013-4-9,44.2,32.4,22.5,18.7,10.9,5.1,53,41,26,30.14,29.81,20,12,31,0.00
2013-4-10,49.8,36.0,21.3,31.2,18.5,8.7,68,50,31,30.17,29.76,10,3,15,0.00
2013-4-11,55.9,43.1,31.3,32.6,27.0,14.8,85,58,21,29.86,29.70,20,5,28,0.02
2013-4-12,50.4,39.4,28.2,30.6,21.4,12.2,86,53,24,30.00,29.63,10,2,16,0.00
2013-4-13,48.2,39.9,29.1,38.1,24.7,3.2,92,57,26,29.67,29.19,30,10,41,0.09
2013-4-14,40.2,30.9,21.4,18.8,11.3,4.2,64,46,23,29.83,29.67,10,3,16,0.01
2013-4-15,40.8,31.5,23.9,27.6,15.0,8.7,84,52,27,29.84,29.65,19,6,27,0.00
2013-4-16,38.0,29.4,22.5,11.3,6.8,3.6,49,39,27,30.07,29.76,18,12,26,0.00
2013-4-17,36.5,27.4,18.8,5.1,3.1,0.4,51,36,24,30.28,30.06,18,11,27,0.00
2013-4-18,47.0,31.6,15.4,17.4,9.6,4.2,66,42,23,30.34,30.14,12,4,17,0.00
2013-4-19,43.6,37.5,30.0,36.9,26.8,16.0,90,66,46,30.14,29.81,15,5,22,0.05
2013-4-20,46.7,39.7,34.4,38.4,34.6,29.2,92,83,59,29.97,29.81,13,4,20,0.16
2013-4-21,52.5,40.7,31.2,31.4,27.5,21.6,88,63,31,30.07,29.71,19,5,35,0.02
2013-4-22,38.9,32.5,26.4,23.8,13.6,6.4,77,48,27,30.28,29.85,21,12,30,0.00
2013-4-23,44.3,33.0,17.3,18.2,7.2,2.6,62,36,19,30.33,30.08,13,4,18,0.00
2013-4-24,52.3,38.8,25.3,19.8,16.2,9.5,75,44,19,30.23,30.02,11,3,17,0.00
2013-4-25,61.6,44.5,27.2,20.9,15.5,7.5,65,36,12,30.03,29.80,13,4,24,0.00
2013-4-26,66.3,48.5,30.4,24.7,19.2,15.6,63,35,15,30.12,29.89,11,3,20,0.00
2013-4-27,70.1,53.5,33.7,27.5,23.8,19.6,64,35,17,30.12,29.75,17,7,25,0.00
2013-4-28,64.2,52.7,43.5,37.5,27.2,20.5,58,38,23,29.81,29.64,21,4,30,0.00
2013-4-29,59.3,47.0,33.8,29.1,23.9,14.1,66,42,19,29.77,29.42,31,10,44,0.00
2013-4-30,46.8,37.3,26.4,22.9,12.8,4.5,66,39,19,30.01,29.58,14,4,19,0.00
2013-5-1,47.6,37.3,28.7,17.0,9.4,-6.2,56,34,12,30.54,30.02,17,7,30,0.00
2013-5-2,55.9,40.7,22.5,14.4,9.9,6.1,61,32,14,30.65,30.28,9,3,16,0.00
2013-5-3,63.5,49.0,34.6,30.8,16.6,9.7,55,30,13,30.29,29.84,17,4,22,0.00
2013-5-4,59.9,49.6,42.2,39.8,30.4,25.5,74,49,29,29.92,29.82,18,10,27,0.01
2013-5-5,65.8,51.2,39.1,37.1,29.7,24.8,65,46,22,29.91,29.71,21,4,28,0.01
2013-5-6,70.4,54.7,37.5,33.7,29.4,20.4,74,43,16,29.86,29.63,15,3,22,0.00
2013-5-7,69.3,51.6,37.9,42.6,34.1,22.7,78,54,20,29.81,29.61,20,3,38,0.00
2013-5-8,71.8,56.6,38.0,37.7,29.8,17.9,83,44,13,29.90,29.74,10,4,17,0.00
2013-5-9,71.3,55.9,38.9,37.3,32.1,24.7,76,44,19,29.97,29.84,17,3,24,0.00
2013-5-10,73.0,57.8,38.0,35.9,27.8,15.3,73,38,13,30.07,29.92,12,4,19,0.00
2013-5-11,74.2,59.5,40.5,35.7,29.3,23.6,62,35,17,30.10,29.88,14,3,24,0.00
2013-5-12,80.5,64.6,46.4,36.2,33.6,30.2,62,35,19,30.00,29.72,11,4,17,0.00
2013-5-13,83.4,67.0,51.1,38.5,33.8,28.6,55,33,15,29.86,29.55,18,6,31,0.00
2013-5-14,74.4,61.5,43.3,41.1,34.6,29.5,63,39,21,29.75,29.55,20,7,29,0.00
2013-5-15,57.8,50.6,45.2,34.1,32.8,31.8,61,51,41,29.71,29.63,2,0,6,0.00
2013-5-17,57.0,52.9,46.8,45.2,42.3,39.7,81,68,57,29.77,29.67,13,6,17,0.09
2013-5-18,47.6,45.7,42.5,42.7,41.0,38.7,90,84,78,29.89,29.70,7,2,14,0.06
2013-5-19,53.1,47.1,42.8,43.1,39.9,36.5,92,77,58,29.95,29.87,9,2,12,0.07
2013-5-20,62.3,51.4,40.3,42.8,38.8,31.0,91,65,31,30.02,29.87,13,3,20,0.05
2013-5-21,66.0,53.0,38.8,44.1,38.5,32.6,83,60,34,29.94,29.52,18,2,27,0.20
2013-5-22,58.7,52.0,43.3,40.2,34.2,21.9,67,51,35,29.70,29.43,15,6,19,0.00
2013-5-23,61.0,48.4,37.8,34.8,31.5,27.9,79,54,31,29.80,29.58,12,3,18,0.00
2013-5-24,63.1,50.5,34.7,32.9,25.5,18.4,73,41,20,29.92,29.73,12,5,25,0.00
2013-5-25,67.9,53.1,38.6,32.3,27.2,21.4,60,40,19,29.77,29.66,12,4,18,0.00
2013-5-27,62.0,54.6,45.4,39.6,33.7,26.9,71,47,31,29.81,29.64,12,6,18,0.15
2013-5-28,57.2,49.1,44.8,43.6,40.0,33.7,86,72,47,29.68,29.52,12,2,18,0.10
2013-5-29,56.6,47.9,43.5,44.2,41.0,35.9,91,78,54,29.64,29.52,11,4,18,0.16
2013-5-30,58.4,47.9,40.3,40.9,37.3,28.7,88,68,36,29.82,29.59,11,4,17,0.28
2013-5-31,62.6,50.4,36.5,37.2,29.5,18.4,86,50,19,30.08,29.82,10,3,19,0.00
2013-6-1,68.4,53.6,34.3,40.0,31.0,20.3,81,47,17,30.11,29.81,6,2,12,0.00
2013-6-2,76.7,60.8,42.5,47.1,35.6,27.7,69,43,18,29.82,29.35,18,5,26,0.02
2013-6-3,62.7,51.9,36.2,39.2,33.1,26.5,83,51,27,29.82,29.50,9,2,18,0.00
2013-6-4,65.3,55.1,45.5,37.4,31.8,25.4,69,44,24,29.94,29.80,11,4,16,0.00
2013-6-5,73.2,57.4,37.6,42.1,34.2,27.9,73,45,24,30.01,29.75,7,2,13,0.00
2013-6-6,76.5,62.6,44.5,44.5,38.6,32.6,72,44,22,29.85,29.69,7,2,11,0.00
2013-6-7,79.8,64.9,46.4,46.2,41.7,38.3,76,46,26,29.76,29.42,13,5,20,0.00
2013-6-8,78.5,66.3,52.0,42.9,37.5,27.1,58,36,16,29.70,29.47,12,3,17,0.00
2013-6-9,81.8,65.6,44.2,45.2,39.4,35.4,74,43,22,29.78,29.43,21,6,29,0.00
2013-6-10,85.3,69.2,53.6,51.6,41.8,27.7,61,40,22,29.51,29.31,12,4,19,0.00
2013-6-11,76.5,65.7,55.1,47.0,39.9,26.9,61,40,27,29.67,29.34,20,6,30,0.00
2013-6-12,68.4,58.9,51.9,51.3,46.2,40.8,81,64,39,29.87,29.66,9,2,16,0.08
2013-6-13,71.6,60.8,49.2,54.9,41.7,27.5,77,52,23,29.87,29.59,17,8,29,0.04
2013-6-14,60.7,49.9,42.3,36.9,33.6,27.6,76,55,30,30.04,29.75,18,7,26,0.00
2013-6-15,73.7,55.7,34.7,37.8,30.6,16.6,81,46,13,30.03,29.75,7,3,13,0.00
2013-6-16,83.0,64.0,41.3,36.6,30.8,21.8,59,33,12,29.85,29.68,13,3,17,0.00
2013-6-17,82.8,67.0,45.8,44.0,37.5,27.8,69,37,14,29.81,29.57,9,3,14,0.00
2013-6-18,87.6,67.9,48.5,47.0,37.6,24.8,60,36,15,29.63,29.30,19,3,38,0.00
2013-6-19,69.8,58.0,44.8,43.8,36.5,31.3,65,46,28,29.75,29.20,19,7,29,0.00
2013-6-20,61.6,49.3,35.8,35.8,30.1,18.6,77,52,21,29.94,29.75,15,4,20,0.00
2013-6-21,66.0,52.0,37.9,38.8,32.0,24.7,72,49,24,29.92,29.79,11,4,20,0.00
2013-6-22,63.2,51.6,39.2,40.5,35.4,30.3,76,55,36,29.91,29.78,14,4,21,0.00
2013-6-23,74.4,57.7,38.6,40.1,34.4,26.5,83,47,19,29.85,29.48,7,2,12,0.00
2013-6-24,74.6,61.2,48.9,48.2,41.1,31.4,84,49,29,29.60,29.39,12,3,19,0.03
2013-6-25,69.8,58.8,51.0,51.6,47.5,42.2,86,68,38,29.75,29.59,12,4,21,0.02
2013-6-26,75.8,64.6,53.9,52.7,49.8,42.8,87,62,32,29.85,29.71,16,6,29,0.04
2013-6-27,87.6,70.5,50.5,55.3,47.9,42.8,79,49,22,29.94,29.76,7,2,12,0.00
2013-6-28,92.5,73.7,53.2,54.4,47.4,32.5,75,45,15,29.93,29.71,5,1,9,0.00
2013-6-29,95.6,73.3,56.2,54.3,47.2,36.3,69,44,15,29.80,29.63,22,3,30,0.00
2013-6-30,93.6,76.3,58.6,56.9,49.6,44.2,68,42,20,29.84,29.62,6,1,11,0.02
2013-7-1,90.7,75.0,55.6,58.6,49.9,38.9,76,46,17,29.82,29.68,9,2,14,0.00
2013-7-2,95.4,75.3,55.4,61.3,51.1,43.1,73,47,17,29.84,29.60,10,2,13,0.00
2013-7-3,91.2,73.1,59.3,58.4,52.4,46.7,73,51,25,29.75,29.54,7,2,13,0.00
2013-7-4,85.5,71.6,60.1,57.8,52.6,46.1,71,53,27,29.65,29.47,17,2,24,0.00
2013-7-5,81.1,68.9,58.1,55.8,51.1,42.4,84,56,26,29.60,29.42,14,4,20,0.11
2013-7-6,82.2,63.1,51.1,56.6,48.8,43.4,82,63,27,29.72,29.55,15,3,21,0.42
2013-7-7,84.0,67.4,52.2,62.3,49.7,44.4,76,55,33,29.80,29.54,6,2,13,0.18
2013-7-8,81.2,68.6,51.9,56.8,46.3,36.5,78,48,22,29.78,29.61,18,5,26,0.00
2013-7-9,86.5,70.0,48.9,50.9,44.5,32.7,79,45,19,29.89,29.69,5,1,11,0.00
2013-7-10,94.0,73.0,50.8,56.3,44.1,31.8,69,41,12,29.82,29.52,5,2,8,0.00
2013-7-11,66.1,63.1,60.9,47.9,42.5,39.8,52,47,43,29.54,29.50,4,1,7,0.00
2013-7-12,79.8,69.0,51.3,53.1,47.0,39.1,85,48,26,29.83,29.60,12,3,19,0.00
2013-7-13,80.5,67.6,51.7,56.4,46.8,35.2,68,50,20,29.76,29.64,11,3,17,0.00
2013-7-14,84.3,69.1,52.3,53.3,46.6,36.3,75,48,21,29.85,29.67,10,2,17,0.00
2013-7-15,88.6,70.2,51.3,53.7,46.1,36.9,72,46,17,29.80,29.56,11,2,14,0.00
2013-7-16,82.8,65.9,54.5,60.5,49.6,43.4,71,56,37,29.74,29.56,6,2,11,0.00
2013-7-17,87.2,77.0,60.1,61.7,54.9,48.7,84,49,28,29.81,29.66,8,2,15,0.06
2013-7-18,89.0,72.7,54.7,57.9,50.6,41.7,81,50,20,29.86,29.65,5,1,12,0.00
2013-7-19,88.8,71.9,52.9,57.1,45.2,33.3,68,42,18,29.80,29.57,6,2,12,0.00
2013-7-20,89.9,71.1,50.1,53.8,42.7,33.8,66,40,16,29.71,29.46,7,2,13,0.00
2013-7-21,87.6,69.6,48.0,52.2,41.8,27.5,72,41,12,29.66,29.49,5,1,12,0.00
2013-7-22,88.2,69.6,48.2,45.6,37.0,18.3,66,36,10,29.71,29.52,10,2,13,0.00
2013-7-23,88.0,67.9,44.5,53.4,39.5,29.0,68,40,14,29.83,29.65,6,2,11,0.00
2013-7-24,83.2,68.6,50.8,54.0,44.2,33.9,66,43,20,29.78,29.64,8,2,11,0.00
2013-7-25,86.5,69.1,49.2,56.1,44.4,34.3,69,45,17,29.83,29.69,10,3,15,0.00
2013-7-26,89.3,72.6,53.8,54.4,42.3,32.2,62,37,17,29.90,29.67,10,2,18,0.00
2013-7-27,75.4,62.6,53.2,55.6,48.2,40.3,86,60,36,29.85,29.68,9,2,17,0.02
2013-7-28,78.5,61.0,49.8,51.7,48.3,43.6,87,65,31,29.80,29.56,17,3,33,0.07
2013-7-29,80.1,61.2,48.8,52.3,46.1,40.3,80,60,26,29.81,29.62,8,2,14,0.00
2013-7-30,83.0,66.2,51.1,49.7,44.3,34.3,76,49,20,29.92,29.75,16,4,22,0.00
2013-7-31,87.6,67.3,47.4,52.3,44.2,36.3,77,48,18,29.98,29.69,13,3,27,0.35
2013-8-1,86.7,71.6,57.5,51.6,45.6,33.0,75,44,16,29.75,29.41,11,3,21,0.00
2013-8-2,77.0,64.1,52.3,47.6,38.8,26.2,76,43,16,29.80,29.50,10,3,16,0.00
2013-8-3,81.2,64.2,44.5,46.3,36.2,25.3,77,41,14,29.88,29.72,8,2,17,0.00
2013-8-4,85.3,67.3,45.5,46.3,36.2,27.7,73,37,13,29.85,29.65,9,3,14,0.00
2013-8-5,88.6,69.8,46.8,43.6,34.1,25.1,63,31,12,29.80,29.50,10,3,19,0.00
2013-8-6,85.9,68.3,46.2,46.4,38.4,30.7,65,37,14,29.78,29.52,10,2,20,0.00
2013-8-7,87.8,67.8,47.9,42.6,36.1,23.1,63,37,10,29.77,29.58,8,3,14,0.00
2013-8-8,87.0,67.8,47.0,44.6,36.2,27.2,58,34,13,29.77,29.59,11,3,17,0.00
2013-8-9,84.9,69.6,56.2,48.4,41.5,31.0,64,40,15,29.79,29.61,8,2,14,0.00
2013-8-10,85.7,71.4,56.3,44.4,37.6,25.0,57,33,12,29.81,29.65,10,4,22,0.00
2013-8-11,87.4,70.6,52.6,44.5,36.2,26.9,55,31,13,29.82,29.65,10,3,18,0.00
2013-8-12,86.3,68.6,51.3,42.2,37.0,29.2,59,35,13,29.81,29.69,12,3,27,0.00
2013-8-13,85.9,67.6,49.4,45.5,37.5,28.9,63,37,13,29.89,29.71,11,3,16,0.00
2013-8-14,86.5,68.6,51.0,41.9,37.5,29.3,64,37,13,29.91,29.69,9,2,14,0.00
2013-8-15,90.7,74.7,51.6,38.9,31.7,20.9,55,24,8,29.84,29.66,9,2,20,0.00
2013-8-16,91.8,71.5,49.4,36.0,28.9,21.0,48,24,9,29.81,29.66,10,3,15,0.00
2013-8-17,90.1,71.6,51.3,38.7,31.6,24.7,46,26,10,29.82,29.63,9,3,20,0.00
2013-8-18,88.6,73.4,58.1,43.4,37.7,31.1,51,29,14,29.81,29.61,9,2,16,0.00
2013-8-19,89.0,70.2,50.5,43.1,37.3,28.5,59,34,12,29.84,29.65,8,1,11,0.00
2013-8-20,88.6,72.8,56.3,46.9,39.4,26.3,57,34,11,29.75,29.60,8,2,15,0.00
2013-8-21,81.8,68.0,55.1,51.2,46.1,42.7,66,47,27,29.81,29.66,9,3,19,0.00
2013-8-22,85.1,72.1,53.8,50.8,45.9,40.3,75,42,21,29.89,29.59,15,2,21,0.00
2013-8-23,84.0,68.8,56.5,51.5,46.9,41.9,72,49,25,29.67,29.53,12,3,20,0.00
2013-8-24,80.9,64.4,54.4,53.0,46.6,36.4,83,56,23,29.84,29.58,15,2,26,0.11
2013-8-25,83.4,66.1,51.0,52.4,46.9,37.5,83,55,21,29.91,29.67,8,2,11,0.00
2013-8-26,79.0,67.9,56.5,52.0,49.2,43.7,80,53,34,29.86,29.68,8,2,12,0.00
2013-8-27,81.6,68.5,54.7,50.0,47.1,42.4,74,50,26,29.87,29.67,7,2,14,0.00
2013-8-28,81.6,67.2,58.0,53.0,49.2,43.2,68,54,31,29.83,29.70,19,4,24,0.00
2013-8-29,86.1,68.9,52.9,56.9,46.6,41.2,74,49,22,29.93,29.73,12,3,18,0.03
2013-8-30,86.5,70.6,55.0,49.2,43.5,36.7,69,41,18,29.85,29.68,12,3,18,0.00
2013-8-31,85.7,67.4,47.4,40.7,33.9,26.1,65,34,12,29.90,29.71,6,2,12,0.00
2013-9-1,90.3,69.4,49.2,39.4,32.1,25.9,52,29,11,29.84,29.63,6,2,11,0.00
2013-9-2,72.3,63.8,55.6,56.0,44.9,30.7,84,52,31,29.81,29.61,6,1,12,0.00
2013-9-3,84.5,66.2,53.9,59.1,51.8,44.2,87,66,27,29.93,29.71,16,2,26,0.19
2013-9-4,82.0,68.4,57.5,56.2,53.0,45.5,87,62,29,29.98,29.79,7,2,12,0.00
2013-9-5,83.8,68.2,55.6,55.4,50.7,46.7,77,57,29,29.91,29.66,5,2,10,0.00
2013-9-6,84.0,66.5,55.7,54.0,49.4,45.4,73,57,28,29.84,29.70,20,3,29,0.00
2013-9-7,78.6,63.9,53.6,53.6,50.1,46.6,85,64,33,29.91,29.75,9,1,16,0.00
2013-9-8,77.6,61.2,52.0,50.5,47.6,42.2,83,64,32,29.86,29.60,15,3,22,0.03
2013-9-9,73.7,59.4,46.5,46.8,42.0,34.1,87,57,25,29.89,29.68,8,1,12,0.00
2013-9-10,82.4,63.2,43.2,44.4,38.9,35.4,78,46,20,29.91,29.71,5,1,8,0.00
2013-9-11,61.3,58.3,54.5,41.3,39.9,37.9,58,50,44,29.80,29.76,3,1,7,0.00
2013-9-12,70.1,63.7,58.3,47.5,46.0,44.8,63,53,44,29.82,29.75,5,2,11,0.03
2013-9-13,79.0,62.8,49.1,53.1,45.3,40.4,87,58,26,29.80,29.54,9,2,13,0.06
2013-9-14,70.3,60.0,49.6,52.2,46.2,40.7,88,63,35,29.75,29.61,18,5,28,0.00
2013-9-15,78.1,62.7,54.4,51.8,47.4,42.4,72,59,29,29.84,29.68,13,2,18,0.00
2013-9-16,79.8,65.2,51.9,50.1,47.2,42.5,78,55,28,29.82,29.57,10,3,18,0.00
2013-9-17,77.7,60.1,53.5,51.8,46.6,39.7,82,63,27,29.59,29.28,18,4,25,0.27
2013-9-18,55.6,46.9,38.5,46.7,40.2,34.7,87,78,57,30.02,29.43,20,5,25,0.56
2013-9-19,61.2,45.9,32.9,37.2,32.2,27.1,89,64,28,30.18,30.01,4,1,8,0.01
2013-9-20,61.5,40.6,33.5,34.9,29.6,27.0,79,67,27,30.06,29.91,6,2,10,0.00
2013-9-21,77.0,67.7,52.6,38.3,33.1,27.1,54,29,17,29.69,29.28,11,3,17,0.00
2013-9-22,61.6,52.9,45.1,40.6,37.3,32.7,75,56,37,29.64,29.25,15,4,19,0.02
2013-9-23,63.1,49.9,38.3,41.0,34.9,26.2,83,59,26,29.92,29.62,19,4,26,0.02
2013-9-24,65.2,51.5,40.8,39.5,34.3,29.2,71,54,27,29.88,29.47,14,3,24,0.00
2013-9-25,49.9,43.5,36.0,40.6,36.1,29.5,87,76,58,29.68,29.44,14,2,20,0.15
2013-9-26,45.7,39.8,35.9,34.2,31.4,28.1,86,72,52,29.78,29.65,15,3,24,0.01
2013-9-27,50.7,41.7,36.2,32.0,27.9,17.3,78,59,28,29.99,29.76,13,4,18,0.01
2013-9-28,56.7,46.4,38.6,35.2,32.1,27.9,82,58,37,30.07,29.86,14,6,19,0.01
2013-9-29,56.5,51.3,46.2,42.3,34.3,26.8,79,53,38,29.86,29.65,22,8,36,0.05
2013-9-30,62.9,53.1,41.2,43.2,38.6,32.4,78,59,38,29.84,29.50,28,10,42,0.06
2013-10-1,61.0,46.0,30.4,36.8,32.3,26.6,88,62,36,29.96,29.77,11,2,19,0.00
2013-10-2,52.9,43.6,32.9,35.2,30.3,25.0,84,62,36,29.99,29.68,6,1,9,0.00
2013-10-3,42.2,37.4,32.5,36.5,29.8,23.4,91,75,51,30.06,29.64,20,6,29,0.39
2013-10-4,46.5,37.2,29.5,24.2,21.3,18.8,72,53,35,30.42,30.05,19,8,29,0.00
2013-10-5,51.0,35.9,23.9,26.6,22.2,17.1,80,60,30,30.53,30.38,5,1,10,0.00
2013-10-6,61.2,43.6,29.1,29.3,24.8,20.1,76,52,22,30.45,30.11,5,2,10,0.00
2013-10-7,66.0,48.0,32.4,30.9,26.4,21.8,72,47,21,30.11,29.64,9,2,17,0.00
2013-10-8,52.2,44.2,30.9,30.0,25.6,19.9,71,49,29,29.86,29.58,13,3,24,0.00
2013-10-9,30.6,28.7,27.0,22.4,21.7,20.6,79,75,71,29.86,29.83,4,1,8,0.00
2013-10-12,53.8,44.1,32.2,34.8,30.3,23.8,72,59,38,30.04,29.87,6,2,13,0.01
2013-10-13,44.2,40.1,36.6,38.0,33.4,29.6,87,77,66,29.97,29.85,8,3,12,0.21
2013-10-14,45.4,40.1,34.3,30.1,26.3,21.3,71,58,43,30.25,29.96,14,4,20,0.00
2013-10-15,49.9,37.8,27.6,24.1,20.5,16.6,75,52,28,30.31,30.12,12,3,16,0.00
2013-10-16,46.5,35.7,24.8,27.9,23.2,17.9,77,62,40,30.26,30.05,8,2,19,0.00
2013-10-17,47.0,38.3,30.7,28.9,24.5,18.2,78,59,32,30.18,30.01,8,1,16,0.00
2013-10-18,48.6,35.1,23.3,24.2,19.6,16.5,80,56,29,30.33,30.16,6,1,13,0.00
2013-10-19,50.1,37.6,26.3,29.3,23.6,18.0,73,58,40,30.26,29.96,7,1,13,0.00
2013-10-20,57.8,42.5,29.3,28.9,24.9,21.6,78,53,26,30.10,29.89,5,1,11,0.00
2013-10-21,57.2,40.6,27.3,28.7,24.6,20.1,75,55,30,30.24,30.04,5,1,11,0.00
2013-10-22,45.4,40.2,38.8,28.9,28.5,27.1,67,63,52,30.17,30.06,3,1,7,0.00
2013-10-23,65.5,45.3,30.1,29.5,26.5,23.0,76,52,23,30.21,29.97,5,2,8,0.00
2013-10-24,67.6,46.6,31.6,27.2,24.0,19.1,73,46,16,30.16,29.95,6,2,10,0.00
2013-10-25,63.7,45.3,31.0,28.5,24.3,21.3,68,47,23,30.23,30.00,5,2,11,0.00
2013-10-26,62.0,44.1,30.3,28.8,25.4,21.4,70,51,25,30.35,30.04,4,1,10,0.00
2013-10-27,60.1,44.0,29.5,26.3,22.7,18.8,70,46,21,30.04,29.55,5,1,13,0.00
2013-10-28,53.9,44.3,29.8,33.6,26.0,21.7,89,52,32,29.76,29.40,16,6,32,0.13
2013-10-29,36.6,32.8,29.1,33.2,27.9,23.3,91,82,73,29.92,29.69,5,1,10,0.05
2013-10-30,36.3,33.9,31.6,33.9,30.9,29.4,92,89,82,30.03,29.83,11,4,20,0.12
2013-10-31,34.3,32.7,29.5,31.6,29.5,27.2,92,88,82,30.13,30.02,11,3,20,0.10
2013-11-1,41.1,33.8,28.2,34.4,30.7,25.9,93,88,75,30.33,30.14,3,1,7,0.05
2013-11-2,54.5,42.7,32.5,35.7,31.1,27.6,87,66,38,30.22,29.52,16,5,27,0.00
2013-11-3,42.1,30.9,23.5,33.4,23.8,17.3,84,75,50,30.04,29.55,17,8,31,0.04
2013-11-4,31.6,26.0,20.3,20.2,17.8,13.2,79,71,52,30.18,29.99,13,2,20,0.00
2013-11-5,30.4,25.7,20.6,23.9,17.4,12.8,84,71,50,30.37,30.16,9,2,16,0.00
2013-11-6,33.5,31.1,27.2,30.3,27.9,23.6,90,88,83,30.39,30.28,4,0,7,0.07
2013-11-7,40.1,35.4,32.2,34.4,31.6,29.6,91,86,70,30.38,29.76,6,1,9,0.52
2013-11-8,43.5,38.4,34.4,31.5,27.1,19.8,84,64,42,30.04,29.71,16,5,26,0.01
2013-11-9,48.9,37.9,32.2,26.8,24.4,21.7,77,59,36,30.21,30.04,4,1,8,0.00
2013-11-10,55.0,40.0,31.2,33.6,28.3,24.8,79,65,37,30.29,30.09,4,2,8,0.00
2013-11-11,57.2,40.9,33.1,32.1,27.1,23.0,78,61,28,30.40,30.12,4,2,11,0.00
2013-11-12,62.6,41.9,29.4,31.5,23.9,17.1,76,53,18,30.51,30.20,6,2,10,0.00
2013-11-13,44.9,37.4,30.9,36.1,29.5,24.1,90,74,49,30.25,30.14,4,1,9,0.06
2013-11-14,34.4,33.2,30.0,31.7,28.9,25.3,91,84,73,30.19,29.73,4,0,6,0.01
2013-11-15,32.4,29.0,25.7,27.4,23.9,19.6,91,81,61,29.80,29.55,11,3,18,0.00
2013-11-16,32.8,27.2,15.4,27.9,22.7,9.8,91,83,60,29.79,29.35,18,10,28,0.00
2013-11-17,35.3,24.7,11.1,26.0,18.2,6.2,87,76,64,30.19,29.79,11,2,17,0.01
2013-11-18,45.4,33.3,22.5,29.3,24.5,18.4,86,71,42,30.23,29.84,3,1,8,0.00
2013-11-19,38.8,36.4,32.8,33.4,30.7,26.9,86,80,64,29.85,29.78,10,3,15,0.01
2013-11-20,40.2,35.1,22.2,35.8,28.9,10.8,91,78,61,30.02,29.67,20,9,28,0.23
2013-11-21,28.7,21.4,13.1,11.1,6.0,2.5,63,51,40,30.69,30.02,18,10,28,0.00
2013-11-22,38.9,21.7,7.7,20.7,8.4,-2.0,69,57,33,30.79,30.54,6,2,12,0.01
2013-11-23,46.5,28.6,16.9,22.6,15.7,8.3,73,60,32,30.60,30.24,5,2,10,0.00
2013-11-24,37.8,26.2,16.2,21.4,15.4,8.7,82,65,39,30.37,30.18,5,1,8,0.00
2013-11-25,40.5,28.3,18.9,22.6,18.2,12.8,79,67,44,30.54,30.27,4,1,7,0.00
2013-11-26,45.7,29.5,18.0,24.9,17.9,10.6,76,64,34,30.58,30.28,7,2,11,0.00
2013-11-27,47.9,32.5,22.9,27.5,19.8,15.0,73,61,31,30.29,30.07,6,2,11,0.00
2013-11-28,49.1,33.0,23.6,26.1,18.9,14.7,71,58,29,30.22,30.05,6,3,9,0.00
2013-12-1,39.5,39.2,38.8,32.6,32.1,31.4,78,75,73,29.91,29.81,13,8,20,0.18
2013-12-2,42.6,37.7,25.7,31.6,28.8,22.1,87,70,63,29.81,29.39,20,12,30,0.00
2013-12-3,25.7,11.0,1.8,22.6,0.7,-12.2,88,64,49,30.13,29.55,19,10,29,0.00
2013-12-4,8.4,1.1,-7.7,-6.0,-12.8,-17.7,63,51,43,30.45,30.10,17,7,28,0.00
2013-12-5,0.5,-3.4,-5.6,-7.9,-11.2,-13.8,71,68,65,30.47,30.40,2,0,6,0.00
2013-12-6,9.5,1.7,-6.8,0.7,-6.9,-15.2,76,67,54,30.51,30.30,5,1,9,0.00
2013-12-7,13.3,7.6,2.8,8.0,0.7,-6.3,79,73,64,30.29,29.91,8,4,14,0.00
2013-12-8,3.4,-0.1,-8.6,-3.6,-7.1,-16.3,75,72,67,30.64,30.13,10,2,13,0.00
2013-12-9,4.8,-1.8,-10.3,-1.6,-9.4,-18.3,76,70,59,30.89,30.64,2,0,5,0.00
2013-12-10,15.9,9.1,4.3,5.5,1.8,-1.9,77,72,57,30.74,30.53,2,0,3,0.00
2013-12-11,23.0,16.8,7.6,14.7,9.2,0.5,79,72,58,30.74,30.61,2,1,5,0.03
2013-12-12,29.1,14.8,7.6,14.8,6.5,0.7,81,70,54,30.66,30.33,5,2,8,0.09
2013-12-13,23.9,16.6,9.3,15.3,9.9,3.6,86,75,61,30.57,30.25,5,1,7,0.00
2013-12-14,25.8,21.8,18.9,21.6,18.6,15.4,89,87,83,30.65,30.55,3,0,8,0.00
2013-12-15,28.2,22.5,13.6,23.3,18.5,9.0,89,85,76,30.63,30.49,3,0,6,0.00
2013-12-16,32.2,17.4,9.7,20.1,11.1,4.7,83,76,59,30.72,30.54,4,1,7,0.04
2013-12-17,37.3,20.5,11.1,21.8,12.8,5.3,83,73,48,30.73,30.23,6,1,10,0.04
2013-12-18,36.2,24.2,15.6,20.3,15.8,10.0,83,71,50,30.23,29.75,5,1,7,0.02
2013-12-19,28.5,20.2,2.0,20.1,12.1,-5.5,82,71,44,30.16,29.64,5,1,8,0.00
2013-12-20,18.6,12.5,0.0,14.8,7.0,-6.9,85,78,69,30.21,29.88,13,1,17,0.00
2013-12-21,24.7,19.8,18.1,20.3,16.0,14.1,88,85,82,30.17,29.85,4,0,8,0.00
2013-12-22,21.6,20.3,19.4,18.6,17.0,15.9,88,87,86,30.43,30.16,2,0,6,0.00
2013-12-23,33.5,26.7,21.6,31.4,24.2,18.6,92,90,88,30.44,30.10,8,0,11,0.00
2013-12-24,33.5,22.7,11.7,31.3,15.0,4.0,92,73,51,30.70,30.09,11,1,17,0.13
2013-12-25,28.2,16.4,7.4,13.9,8.2,1.1,80,70,52,30.81,30.59,3,0,6,0.01
2013-12-26,31.0,18.7,13.3,14.9,10.1,6.7,79,69,49,30.74,30.55,4,1,7,0.02
2013-12-27,35.2,19.9,11.9,15.9,9.8,3.7,76,65,43,30.68,30.25,5,1,10,0.02
2013-12-28,29.3,19.6,7.2,16.1,11.5,2.0,83,71,55,30.51,30.16,2,0,6,0.01
2013-12-29,23.0,18.0,10.9,16.3,13.5,5.9,86,82,70,30.63,30.40,3,0,7,0.00
2013-12-30,25.7,21.7,19.2,17.0,15.8,13.9,86,78,66,30.52,30.33,1,0,2,0.00
2013-12-31,30.6,25.7,22.4,22.7,20.4,16.6,88,80,66,30.33,30.16,2,0,5,0.00
2014-1-1,27.0,23.4,18.0,23.8,20.0,13.7,89,87,81,30.55,30.23,3,1,6,0.00
2014-1-2,34.3,26.2,15.9,25.2,19.9,10.0,84,77,61,30.54,30.19,5,1,7,0.01